Pagina principale
METAR-TAF:

METAR-TAF

Aeroporti :

Tabarka, Tunisia

latitudine: 36-57N, longitudine: 008-45E, altezza: 20 m

Osservazione

Il bollettino è stato emesso 30 minuti fa, alle 14:00 UTC
Vento 12 kt da ovest
Temperature 19°C
Umidità 43%
Pressione 1012 hPa
Visibilità 10 km o più
Poco nuvoloso ad un'altezza di 2000 ft

METAR: DTKA 211400Z 28012KT 9999 FEW020 19/06 Q1012 NOSIG

Ora: 15:30 (14:30 UTC)

Previsione

Il bollettino è stato emesso 2 ore e 30 minuti fa, alle 12:00 UTC
Previsione valida dal 21 alle 13 UTC al 21 alle 22 UTC
Vento 10 kt da ovest/sud-ovest
Visibilità 10 km o più
Nubi sparse ad un'altezza di 2000 ft
Evoluzione graduale
dal 21 alle 15 UTC al 21 alle 17 UTC
Vento 5 kt da sud

TAF: DTKA 211200Z 2113/2122 24010KT 9999 SCT020 BECMG 2115/2117 18005KT

Osservazioni e previsioni meteorologiche di più di 4000 aeroporti (messaggi METAR e TAF).

Le stazioni disponibili sono rappresentate dai dischi gialli e rossi sulla carta.

Puntare il mouse per vedere il nome della stazione.

Clicca sopra per visualizzare le osservazioni e previsioni meteorologiche.

Per cambiare la mappa : fare clic sui pulsanti verdi con una croce nera per ingrandire, il pulsante verde con un trattino per diminuire, o sulla freccia verde per le mappe adiacenti.


METAR-TAF: